createdAt,value
2018-06-16T00:02:11.528Z,22.82
2018-06-16T00:04:41.301Z,22.82
2018-06-16T00:07:11.194Z,22.80
2018-06-16T00:09:40.628Z,22.70
2018-06-16T00:12:10.290Z,22.62
2018-06-16T00:14:40.235Z,22.93
2018-06-16T00:17:09.861Z,22.90
2018-06-16T00:19:39.685Z,23.18
2018-06-16T00:22:09.396Z,23.12
2018-06-16T00:24:39.109Z,22.93
2018-06-16T00:27:08.848Z,22.66
2018-06-16T00:29:38.477Z,22.52
2018-06-16T00:32:07.886Z,22.64
2018-06-16T00:37:33.523Z,22.67
2018-06-16T00:40:16.666Z,22.74
2018-06-16T00:42:54.778Z,22.54
2018-06-16T00:45:31.732Z,22.44
2018-06-16T00:48:12.620Z,22.64
2018-06-16T00:50:55.166Z,22.65
2018-06-16T00:53:31.000Z,22.80
2018-06-16T00:56:08.047Z,22.52
2018-06-16T00:58:51.939Z,22.44
2018-06-16T01:01:24.776Z,22.51
2018-06-16T01:04:05.174Z,22.29
2018-06-16T01:06:44.742Z,22.48
2018-06-16T01:09:25.012Z,22.45
2018-06-16T01:11:58.558Z,22.56
2018-06-16T01:14:35.131Z,22.80
2018-06-16T01:17:13.606Z,22.47
2018-06-16T01:22:35.403Z,22.67
2018-06-16T01:28:01.528Z,22.70
2018-06-16T01:30:48.380Z,22.65
2018-06-16T01:33:31.763Z,22.70
2018-06-16T01:36:18.889Z,22.87
2018-06-16T01:38:56.395Z,22.64
2018-06-16T01:41:33.390Z,22.22
2018-06-16T01:44:12.268Z,22.61
2018-06-16T01:47:02.090Z,22.62
2018-06-16T01:49:38.535Z,22.82
2018-06-16T01:52:12.148Z,22.63
2018-06-16T01:54:50.394Z,22.80
2018-06-16T02:00:08.933Z,22.74
2018-06-16T02:02:48.948Z,22.45
2018-06-16T02:08:12.765Z,22.75
2018-06-16T02:10:47.499Z,22.57
2018-06-16T02:13:23.891Z,22.36
2018-06-16T02:15:59.052Z,22.32
2018-06-16T02:21:18.287Z,22.12
2018-06-16T02:23:55.095Z,22.25
2018-06-16T02:26:39.953Z,21.93
2018-06-16T02:29:15.972Z,22.02
2018-06-16T02:31:51.217Z,21.93
2018-06-16T02:34:28.214Z,21.88
2018-06-16T02:37:07.739Z,22.07
2018-06-16T02:39:49.148Z,22.24
2018-06-16T02:42:30.452Z,21.87
2018-06-16T02:45:04.099Z,21.89
2018-06-16T02:47:40.303Z,22.01
2018-06-16T02:50:29.126Z,22.22
2018-06-16T02:53:09.887Z,21.89
2018-06-16T02:55:57.211Z,21.64
2018-06-16T02:58:34.228Z,21.76
2018-06-16T03:01:12.929Z,21.57
2018-06-16T03:03:50.551Z,21.44
2018-06-16T03:06:28.222Z,21.44
2018-06-16T03:09:02.033Z,21.41
2018-06-16T03:11:41.341Z,21.69
2018-06-16T03:14:15.421Z,21.67
2018-06-16T03:16:57.701Z,21.64
2018-06-16T03:19:40.681Z,21.73
2018-06-16T03:22:11.321Z,21.54
2018-06-16T03:24:41.644Z,21.56
2018-06-16T03:27:11.370Z,21.60
2018-06-16T03:29:41.156Z,21.59
2018-06-16T03:32:10.843Z,21.74
2018-06-16T03:34:40.677Z,21.77
2018-06-16T03:37:11.500Z,22.12
2018-06-16T03:39:41.331Z,21.90
2018-06-16T03:42:11.012Z,21.75
2018-06-16T03:44:40.504Z,22.04
2018-06-16T03:47:10.127Z,22.11
2018-06-16T03:49:39.770Z,21.86
2018-06-16T03:52:10.566Z,21.78
2018-06-16T03:54:40.369Z,21.62
2018-06-16T03:57:10.184Z,21.66
2018-06-16T04:02:16.481Z,21.66
2018-06-16T04:04:46.301Z,21.70
2018-06-16T04:07:15.897Z,21.63
2018-06-16T04:09:45.581Z,21.60
2018-06-16T04:12:15.332Z,21.34
2018-06-16T04:14:49.090Z,21.55
2018-06-16T04:17:19.986Z,21.91
2018-06-16T04:22:31.125Z,21.85
2018-06-16T04:25:01.292Z,21.84
2018-06-16T04:27:30.976Z,21.84
2018-06-16T04:30:00.774Z,21.96
2018-06-16T04:32:30.576Z,21.84
2018-06-16T04:35:00.370Z,21.65
2018-06-16T04:37:31.098Z,21.66
2018-06-16T04:40:01.052Z,21.71
2018-06-16T04:42:30.767Z,21.61
2018-06-16T04:45:00.656Z,22.02
2018-06-16T04:47:30.749Z,22.15
2018-06-16T04:50:00.324Z,21.69
2018-06-16T04:52:29.659Z,21.84
2018-06-16T04:57:34.645Z,22.02
2018-06-16T05:00:04.689Z,22.10
2018-06-16T05:02:34.541Z,22.22
2018-06-16T05:05:04.555Z,22.37
2018-06-16T05:10:09.997Z,22.85
2018-06-16T05:12:39.753Z,23.08
2018-06-16T05:15:09.713Z,23.16
2018-06-16T05:17:39.601Z,23.42
2018-06-16T05:20:09.366Z,23.84
2018-06-16T05:22:39.288Z,23.95
2018-06-16T05:25:08.751Z,24.09
2018-06-16T05:27:38.467Z,24.17
2018-06-16T05:30:08.174Z,24.00
2018-06-16T05:32:38.059Z,23.96
2018-06-16T05:35:07.761Z,23.57
2018-06-16T05:37:37.548Z,23.57
2018-06-16T05:40:07.160Z,23.78
2018-06-16T05:42:36.883Z,23.63
2018-06-16T05:45:06.533Z,23.53
2018-06-16T05:47:36.235Z,23.73
2018-06-16T05:50:06.001Z,23.79
2018-06-16T05:52:35.721Z,23.98
2018-06-16T05:55:05.616Z,24.09
2018-06-16T05:57:35.292Z,24.18
2018-06-16T06:00:05.485Z,24.17
2018-06-16T06:02:35.188Z,23.84
2018-06-16T06:07:40.161Z,24.18
2018-06-16T06:10:10.119Z,24.05
2018-06-16T06:12:39.882Z,24.06
2018-06-16T06:15:10.072Z,24.25
2018-06-16T06:17:40.021Z,24.07
2018-06-16T06:20:09.954Z,23.99
2018-06-16T06:22:39.755Z,24.23
2018-06-16T06:25:09.799Z,24.57
2018-06-16T06:27:39.883Z,24.69
2018-06-16T06:30:09.710Z,24.78
2018-06-16T06:32:47.385Z,24.88
2018-06-16T06:35:17.046Z,25.01
2018-06-16T06:37:47.428Z,25.12
2018-06-16T06:40:17.245Z,24.88
2018-06-16T06:42:46.996Z,25.14
2018-06-16T06:45:17.357Z,25.49
2018-06-16T06:47:48.445Z,25.48
2018-06-16T06:50:18.797Z,25.75
2018-06-16T06:52:58.597Z,25.97
2018-06-16T06:55:28.661Z,25.92
2018-06-16T07:00:36.348Z,26.04
2018-06-16T07:09:10.638Z,26.18
2018-06-16T07:11:40.574Z,26.31
2018-06-16T07:16:49.262Z,26.70
2018-06-16T07:19:19.613Z,26.68
2018-06-16T07:24:24.209Z,27.29
2018-06-16T07:26:53.790Z,27.59
2018-06-16T07:29:23.654Z,27.60
2018-06-16T07:34:28.606Z,27.89
2018-06-16T07:36:58.556Z,27.72
2018-06-16T07:39:28.318Z,27.22
2018-06-16T07:41:58.293Z,27.18
2018-06-16T07:44:28.143Z,27.19
2018-06-16T07:46:57.707Z,27.39
2018-06-16T07:49:27.415Z,26.84
2018-06-16T07:51:57.462Z,27.17
2018-06-16T07:54:27.984Z,27.22
2018-06-16T07:56:57.680Z,27.57
2018-06-16T07:59:27.747Z,28.17
2018-06-16T08:01:57.797Z,28.11
2018-06-16T08:04:28.117Z,27.47
2018-06-16T08:06:57.949Z,27.73
2018-06-16T08:09:27.675Z,28.09
2018-06-16T08:11:57.478Z,28.07
2018-06-16T08:14:29.344Z,28.24
2018-06-16T08:16:59.133Z,28.20
2018-06-16T08:19:28.807Z,28.27
2018-06-16T08:21:58.837Z,27.94
2018-06-16T08:24:28.685Z,27.62
2018-06-16T08:26:58.774Z,27.86
2018-06-16T08:29:28.643Z,28.01
2018-06-16T08:31:58.487Z,27.94
2018-06-16T08:34:29.234Z,27.89
2018-06-16T08:36:58.991Z,27.80
2018-06-16T08:39:30.203Z,28.12
2018-06-16T08:42:00.007Z,28.43
2018-06-16T08:44:31.335Z,28.70
2018-06-16T08:47:01.597Z,28.90
2018-06-16T08:49:32.468Z,28.94
2018-06-16T08:52:02.710Z,28.73
2018-06-16T08:54:33.040Z,28.94
2018-06-16T08:57:04.084Z,29.03
2018-06-16T08:59:34.846Z,29.11
2018-06-16T09:02:05.440Z,29.48
2018-06-16T09:04:36.128Z,29.88
2018-06-16T09:07:06.498Z,29.60
2018-06-16T09:09:36.238Z,29.03
2018-06-16T09:12:06.852Z,28.63
2018-06-16T09:14:36.634Z,28.70
2018-06-16T09:17:07.188Z,28.75
2018-06-16T09:19:36.961Z,28.76
2018-06-16T09:22:07.819Z,29.16
2018-06-16T09:24:37.616Z,29.15
2018-06-16T09:27:07.756Z,29.14
2018-06-16T09:29:37.490Z,29.18
2018-06-16T09:32:07.284Z,29.16
2018-06-16T09:34:37.137Z,29.27
2018-06-16T09:37:07.463Z,28.71
2018-06-16T09:39:37.217Z,28.73
2018-06-16T09:42:07.181Z,28.78
2018-06-16T09:44:37.908Z,28.76
2018-06-16T09:47:08.163Z,28.96
2018-06-16T09:49:37.929Z,28.87
2018-06-16T09:52:08.544Z,28.82
2018-06-16T09:54:39.461Z,28.81
2018-06-16T09:57:11.329Z,28.55
2018-06-16T09:59:41.180Z,28.53
2018-06-16T10:02:10.929Z,28.55
2018-06-16T10:04:40.661Z,28.70
2018-06-16T10:07:10.521Z,28.74
2018-06-16T10:09:40.534Z,28.75
2018-06-16T10:12:10.672Z,28.73
2018-06-16T10:14:40.083Z,28.81
2018-06-16T10:17:09.993Z,28.97
2018-06-16T10:19:39.961Z,29.10
2018-06-16T10:22:11.543Z,28.92
2018-06-16T10:24:41.310Z,28.93
2018-06-16T10:27:12.972Z,28.96
2018-06-16T10:35:05.137Z,29.08
2018-06-16T10:37:37.299Z,28.95
2018-06-16T10:40:09.796Z,29.08
2018-06-16T10:42:40.579Z,29.16
2018-06-16T10:45:13.927Z,29.49
2018-06-16T10:47:44.498Z,29.60
2018-06-16T10:50:14.543Z,29.86
2018-06-16T10:52:46.653Z,29.70
2018-06-16T11:00:52.125Z,29.15
2018-06-16T11:03:24.585Z,29.09
2018-06-16T11:08:52.125Z,28.82
2018-06-16T11:14:20.451Z,28.62
2018-06-16T11:16:50.160Z,28.54
2018-06-16T11:19:19.864Z,28.51
2018-06-16T11:21:50.919Z,28.54
2018-06-16T11:24:20.980Z,28.22
2018-06-16T11:26:51.344Z,28.05
2018-06-16T11:29:21.290Z,27.80
2018-06-16T11:31:51.920Z,27.56
2018-06-16T11:34:22.555Z,27.48
2018-06-16T11:36:53.150Z,27.36
2018-06-16T11:39:24.192Z,27.29
2018-06-16T11:41:54.739Z,27.41
2018-06-16T11:44:24.893Z,27.08
2018-06-16T11:46:54.765Z,26.94
2018-06-16T11:49:25.133Z,27.11
2018-06-16T11:51:55.799Z,26.98
2018-06-16T11:54:26.271Z,26.81
2018-06-16T11:59:32.182Z,26.65
2018-06-16T12:02:03.174Z,26.56
2018-06-16T12:04:33.992Z,26.47
2018-06-16T12:07:04.049Z,26.35
2018-06-16T12:09:35.354Z,26.27
2018-06-16T12:12:06.306Z,26.72
2018-06-16T12:14:36.934Z,26.60
2018-06-16T12:17:11.560Z,26.32
2018-06-16T12:19:42.774Z,26.16
2018-06-16T12:22:14.292Z,26.02
2018-06-16T12:24:45.836Z,26.01
2018-06-16T12:27:15.862Z,26.03
2018-06-16T12:29:46.704Z,26.00
2018-06-16T12:32:16.059Z,25.90
2018-06-16T12:34:46.927Z,25.94
2018-06-16T12:37:17.389Z,26.05
2018-06-16T12:39:49.073Z,26.09
2018-06-16T12:42:19.033Z,26.01
2018-06-16T12:44:48.627Z,25.85
2018-06-16T12:47:18.159Z,25.89
2018-06-16T12:49:47.916Z,26.05
2018-06-16T12:52:19.087Z,26.22
2018-06-16T12:54:48.971Z,26.15
2018-06-16T12:57:19.289Z,25.77
2018-06-16T12:59:49.343Z,25.86
2018-06-16T13:02:18.932Z,25.91
2018-06-16T13:04:48.751Z,25.84
2018-06-16T13:07:18.585Z,25.83
2018-06-16T13:09:48.528Z,25.85
2018-06-16T13:12:18.394Z,26.22
2018-06-16T13:14:48.224Z,26.09
2018-06-16T13:17:17.730Z,26.07
2018-06-16T13:19:47.628Z,26.13
2018-06-16T13:22:20.985Z,26.15
2018-06-16T13:24:50.790Z,26.06
2018-06-16T13:27:20.425Z,26.10
2018-06-16T13:29:50.695Z,26.43
2018-06-16T13:32:20.452Z,26.41
2018-06-16T13:34:50.259Z,26.62
2018-06-16T13:37:25.416Z,26.32
2018-06-16T13:39:55.627Z,25.98
2018-06-16T13:42:26.011Z,26.00
2018-06-16T13:47:30.926Z,26.01
2018-06-16T13:50:00.618Z,25.96
2018-06-16T13:52:30.825Z,26.09
2018-06-16T13:55:00.674Z,25.92
2018-06-16T13:57:31.099Z,26.08
2018-06-16T14:00:00.869Z,26.09
2018-06-16T14:02:30.656Z,26.11
2018-06-16T14:05:00.364Z,26.15
2018-06-16T14:07:32.051Z,26.36
2018-06-16T14:10:01.807Z,26.35
2018-06-16T14:12:31.594Z,26.64
2018-06-16T14:15:01.984Z,26.84
2018-06-16T14:17:32.280Z,26.84
2018-06-16T14:20:06.693Z,26.83
2018-06-16T14:22:38.702Z,26.95
2018-06-16T14:25:10.917Z,26.93
2018-06-16T14:27:41.845Z,26.95
2018-06-16T14:30:11.861Z,26.99
2018-06-16T14:35:38.921Z,26.78
2018-06-16T14:38:08.970Z,26.83
2018-06-16T14:43:14.166Z,26.98
2018-06-16T14:45:43.951Z,26.94
2018-06-16T14:48:13.692Z,26.96
2018-06-16T14:50:43.644Z,27.07
2018-06-16T14:53:13.490Z,26.91
2018-06-16T14:55:43.866Z,26.91
2018-06-16T14:58:13.512Z,27.17
2018-06-16T15:00:43.813Z,27.19
2018-06-16T15:03:13.704Z,27.05
2018-06-16T15:05:43.582Z,27.23
2018-06-16T15:08:13.709Z,27.06
2018-06-16T15:13:20.150Z,27.20
2018-06-16T15:15:50.402Z,27.04
2018-06-16T15:18:23.833Z,27.13
2018-06-16T15:20:55.653Z,26.91
2018-06-16T15:26:01.108Z,27.10
2018-06-16T15:28:31.076Z,27.29
2018-06-16T15:31:09.489Z,27.27
2018-06-16T15:33:42.828Z,27.43
2018-06-16T15:41:32.185Z,27.80
2018-06-16T15:44:02.411Z,27.88
2018-06-16T15:46:33.305Z,28.08
2018-06-16T15:49:02.837Z,28.21
2018-06-16T15:51:32.749Z,28.25
2018-06-16T15:54:02.552Z,28.42
2018-06-16T15:56:33.425Z,28.32
2018-06-16T15:59:03.316Z,28.25
2018-06-16T16:01:34.408Z,28.45
2018-06-16T16:04:04.867Z,28.35
2018-06-16T16:06:35.197Z,28.39
2018-06-16T16:09:06.928Z,28.36
2018-06-16T16:11:37.707Z,28.48
2018-06-16T16:14:07.686Z,28.42
2018-06-16T16:16:37.546Z,28.45
2018-06-16T16:19:07.443Z,28.38
2018-06-16T16:21:37.257Z,28.41
2018-06-16T16:24:07.019Z,28.48
2018-06-16T16:26:37.167Z,28.55
2018-06-16T16:29:06.900Z,28.33
2018-06-16T16:31:36.675Z,28.53
2018-06-16T16:34:10.517Z,28.45
2018-06-16T16:36:40.445Z,28.42
2018-06-16T16:39:10.597Z,28.37
2018-06-16T16:41:40.450Z,28.29
2018-06-16T16:44:10.310Z,28.26
2018-06-16T16:46:40.064Z,28.01
2018-06-16T16:49:09.984Z,28.14
2018-06-16T16:51:39.867Z,28.30
2018-06-16T16:54:10.608Z,28.10
2018-06-16T16:56:40.399Z,27.87
2018-06-16T16:59:10.000Z,28.03
2018-06-16T17:01:39.806Z,27.93
2018-06-16T17:04:09.592Z,27.84
2018-06-16T17:06:39.298Z,27.88
2018-06-16T17:09:10.991Z,27.86
2018-06-16T17:11:41.199Z,27.87
2018-06-16T17:14:11.044Z,27.73
2018-06-16T17:16:40.765Z,27.48
2018-06-16T17:19:10.482Z,27.38
2018-06-16T17:21:39.931Z,27.31
2018-06-16T17:24:09.673Z,27.18
2018-06-16T17:26:39.472Z,27.18
2018-06-16T17:29:09.632Z,26.96
2018-06-16T17:31:39.369Z,26.48
2018-06-16T17:34:09.663Z,26.79
2018-06-16T17:36:39.760Z,26.85
2018-06-16T17:39:11.516Z,26.85
2018-06-16T17:41:46.077Z,26.72
2018-06-16T17:44:16.169Z,26.89
2018-06-16T17:46:45.988Z,26.76
2018-06-16T17:49:15.624Z,26.78
2018-06-16T17:51:45.592Z,26.67
2018-06-16T17:54:15.251Z,26.62
2018-06-16T17:56:44.957Z,26.57
2018-06-16T17:59:14.808Z,26.52
2018-06-16T18:01:53.148Z,26.37
2018-06-16T18:04:22.913Z,26.39
2018-06-16T18:06:53.585Z,26.29
2018-06-16T18:09:23.383Z,26.10
2018-06-16T18:11:53.171Z,26.13
2018-06-16T18:14:22.989Z,26.24
2018-06-16T18:19:32.140Z,26.05
2018-06-16T18:22:02.041Z,25.96
2018-06-16T18:24:31.878Z,25.96
2018-06-16T18:27:01.800Z,26.04
2018-06-16T18:29:32.006Z,26.30
2018-06-16T18:34:37.399Z,26.04
2018-06-16T18:37:07.275Z,25.90
2018-06-16T18:39:37.113Z,25.81
2018-06-16T18:42:06.889Z,25.86
2018-06-16T18:44:37.093Z,25.76
2018-06-16T18:47:07.724Z,25.68
2018-06-16T18:49:37.857Z,25.57
2018-06-16T18:52:07.655Z,25.44
2018-06-16T18:54:38.282Z,25.41
2018-06-16T18:57:08.204Z,25.44
2018-06-16T18:59:39.818Z,25.38
2018-06-16T19:02:14.743Z,25.37
2018-06-16T19:04:44.525Z,25.38
2018-06-16T19:07:14.651Z,25.32
2018-06-16T19:09:44.555Z,25.27
2018-06-16T19:12:14.383Z,25.05
2018-06-16T19:14:44.041Z,24.92
2018-06-16T19:17:13.853Z,24.74
2018-06-16T19:19:43.829Z,24.52
2018-06-16T19:22:14.039Z,24.72
2018-06-16T19:24:44.471Z,24.69
2018-06-16T19:27:15.322Z,24.71
2018-06-16T19:29:45.235Z,24.49
2018-06-16T19:32:15.080Z,24.53
2018-06-16T19:34:44.998Z,24.44
2018-06-16T19:37:15.546Z,24.30
2018-06-16T19:39:47.088Z,24.26
2018-06-16T19:42:16.994Z,24.13
2018-06-16T19:44:47.336Z,24.01
2018-06-16T19:47:18.189Z,24.06
2018-06-16T19:49:48.910Z,24.13
2018-06-16T19:52:19.883Z,24.05
2018-06-16T19:54:49.788Z,24.11
2018-06-16T19:57:19.760Z,23.69
2018-06-16T19:59:49.728Z,23.71
2018-06-16T20:02:19.627Z,23.61
2018-06-16T20:04:50.637Z,23.46
2018-06-16T20:07:20.539Z,23.67
2018-06-16T20:09:51.132Z,23.27
2018-06-16T20:12:22.650Z,23.21
2018-06-16T20:14:55.229Z,23.34
2018-06-16T20:17:25.902Z,23.25
2018-06-16T20:19:56.756Z,23.13
2018-06-16T20:22:28.487Z,22.99
2018-06-16T20:25:03.784Z,23.08
2018-06-16T20:27:34.355Z,22.85
2018-06-16T20:30:04.017Z,22.91
2018-06-16T20:32:34.664Z,22.93
2018-06-16T20:35:05.013Z,22.51
2018-06-16T20:40:05.457Z,22.54
2018-06-16T20:42:35.355Z,22.56
2018-06-16T20:45:05.881Z,22.42
2018-06-16T20:47:36.192Z,22.44
2018-06-16T20:50:06.365Z,22.44
2018-06-16T20:52:36.423Z,22.47
2018-06-16T20:55:07.127Z,22.54
2018-06-16T20:57:37.736Z,22.48
2018-06-16T21:00:08.149Z,22.46
2018-06-16T21:02:38.067Z,22.41
2018-06-16T21:05:08.368Z,22.35
2018-06-16T21:07:38.511Z,22.26
2018-06-16T21:10:09.347Z,22.09
2018-06-16T21:12:39.156Z,22.11
2018-06-16T21:15:09.078Z,22.13
2018-06-16T21:17:39.927Z,21.84
2018-06-16T21:20:10.480Z,21.73
2018-06-16T21:22:40.838Z,21.80
2018-06-16T21:25:11.055Z,21.85
2018-06-16T21:27:41.631Z,21.84
2018-06-16T21:30:11.329Z,21.84
2018-06-16T21:32:41.059Z,21.75
2018-06-16T21:35:11.982Z,21.70
2018-06-16T21:37:41.769Z,21.68
2018-06-16T21:40:11.945Z,21.65
2018-06-16T21:42:41.788Z,21.71
2018-06-16T21:45:11.534Z,21.67
2018-06-16T21:47:41.467Z,21.64
2018-06-16T21:50:12.901Z,21.52
2018-06-16T21:52:42.636Z,21.60
2018-06-16T21:55:12.747Z,21.47
2018-06-16T21:57:42.472Z,21.41
2018-06-16T22:00:14.269Z,21.44
2018-06-16T22:02:44.220Z,21.34
2018-06-16T22:05:15.451Z,21.32
2018-06-16T22:07:45.259Z,21.40
2018-06-16T22:10:15.698Z,21.34
2018-06-16T22:12:46.321Z,21.26
2018-06-16T22:15:16.687Z,21.24
2018-06-16T22:17:46.402Z,21.21
2018-06-16T22:20:16.131Z,21.21
2018-06-16T22:22:46.939Z,20.97
2018-06-16T22:25:16.842Z,20.72
2018-06-16T22:27:46.543Z,20.63
2018-06-16T22:30:16.283Z,20.64
2018-06-16T22:32:46.234Z,20.64
2018-06-16T22:35:16.216Z,20.28
2018-06-16T22:37:47.957Z,20.79
2018-06-16T22:40:17.844Z,20.77
2018-06-16T22:42:47.819Z,20.67
2018-06-16T22:45:17.746Z,20.65
2018-06-16T22:47:47.709Z,20.66
2018-06-16T22:50:17.404Z,20.68
2018-06-16T22:52:47.076Z,20.23
2018-06-16T22:55:16.764Z,20.00
2018-06-16T22:57:46.509Z,19.99
2018-06-16T23:00:23.407Z,20.35
2018-06-16T23:02:54.689Z,20.38
2018-06-16T23:05:25.120Z,20.29
2018-06-16T23:07:56.094Z,20.42
2018-06-16T23:10:26.420Z,20.55
2018-06-16T23:12:56.866Z,20.27
2018-06-16T23:15:27.319Z,20.28
2018-06-16T23:17:57.206Z,20.28
2018-06-16T23:20:28.185Z,20.07
2018-06-16T23:22:59.641Z,19.97
2018-06-16T23:25:29.453Z,20.07
2018-06-16T23:27:59.283Z,20.09
2018-06-16T23:30:29.108Z,20.15
2018-06-16T23:32:59.469Z,20.18
2018-06-16T23:35:31.946Z,20.20
2018-06-16T23:38:01.960Z,20.15
2018-06-16T23:40:32.327Z,20.13
2018-06-16T23:43:03.766Z,20.07
2018-06-16T23:45:33.670Z,19.78
2018-06-16T23:48:03.505Z,19.67
2018-06-16T23:50:33.641Z,20.03
2018-06-16T23:53:03.550Z,19.70
2018-06-16T23:55:35.404Z,19.78
2018-06-16T23:58:05.154Z,19.64
